sensor_id;sensor_type;location;lat;lon;timestamp;P1;durP1;ratioP1;P2;durP2;ratioP2
50591;SDS011;36548;50.506;30.834;2022-11-15T00:01:19;9.40;;;8.40;;
50591;SDS011;36548;50.506;30.834;2022-11-15T00:02:47;9.45;;;8.45;;
50591;SDS011;36548;50.506;30.834;2022-11-15T00:04:15;9.33;;;8.40;;
50591;SDS011;36548;50.506;30.834;2022-11-15T00:05:33;9.97;;;8.98;;
50591;SDS011;36548;50.506;30.834;2022-11-15T00:07:01;9.15;;;8.15;;
50591;SDS011;36548;50.506;30.834;2022-11-15T00:08:32;9.18;;;8.32;;
50591;SDS011;36548;50.506;30.834;2022-11-15T00:09:47;10.00;;;8.17;;
50591;SDS011;36548;50.506;30.834;2022-11-15T00:11:15;9.75;;;7.55;;
50591;SDS011;36548;50.506;30.834;2022-11-15T00:12:42;10.32;;;9.27;;
50591;SDS011;36548;50.506;30.834;2022-11-15T00:14:12;9.97;;;7.97;;
50591;SDS011;36548;50.506;30.834;2022-11-15T00:15:39;9.83;;;8.90;;
50591;SDS011;36548;50.506;30.834;2022-11-15T00:16:56;9.50;;;8.60;;
50591;SDS011;36548;50.506;30.834;2022-11-15T00:18:23;9.12;;;8.18;;
50591;SDS011;36548;50.506;30.834;2022-11-15T00:19:51;9.65;;;8.55;;
50591;SDS011;36548;50.506;30.834;2022-11-15T00:21:19;11.18;;;8.02;;
50591;SDS011;36548;50.506;30.834;2022-11-15T00:22:35;9.57;;;8.57;;
50591;SDS011;36548;50.506;30.834;2022-11-15T00:24:04;9.54;;;8.58;;
50591;SDS011;36548;50.506;30.834;2022-11-15T00:25:32;10.45;;;9.40;;
50591;SDS011;36548;50.506;30.834;2022-11-15T00:26:48;10.60;;;9.55;;
50591;SDS011;36548;50.506;30.834;2022-11-15T00:28:16;9.38;;;8.50;;
50591;SDS011;36548;50.506;30.834;2022-11-15T00:29:44;10.70;;;8.55;;
50591;SDS011;36548;50.506;30.834;2022-11-15T00:31:13;9.45;;;8.52;;
50591;SDS011;36548;50.506;30.834;2022-11-15T00:32:42;11.28;;;8.42;;
50591;SDS011;36548;50.506;30.834;2022-11-15T00:34:10;12.22;;;9.43;;
50591;SDS011;36548;50.506;30.834;2022-11-15T00:35:26;9.90;;;8.90;;
50591;SDS011;36548;50.506;30.834;2022-11-15T00:36:55;10.00;;;8.93;;
50591;SDS011;36548;50.506;30.834;2022-11-15T00:38:23;10.77;;;9.35;;
50591;SDS011;36548;50.506;30.834;2022-11-15T00:39:39;9.75;;;8.73;;
50591;SDS011;36548;50.506;30.834;2022-11-15T00:41:06;10.93;;;9.83;;
50591;SDS011;36548;50.506;30.834;2022-11-15T00:42:36;11.43;;;9.48;;
50591;SDS011;36548;50.506;30.834;2022-11-15T00:44:03;14.23;;;9.95;;
50591;SDS011;36548;50.506;30.834;2022-11-15T00:45:18;11.07;;;9.92;;
50591;SDS011;36548;50.506;30.834;2022-11-15T00:46:47;10.53;;;9.48;;
50591;SDS011;36548;50.506;30.834;2022-11-15T00:48:04;10.60;;;9.50;;
50591;SDS011;36548;50.506;30.834;2022-11-15T00:49:32;9.15;;;8.13;;
50591;SDS011;36548;50.506;30.834;2022-11-15T00:50:48;10.60;;;9.50;;
50591;SDS011;36548;50.506;30.834;2022-11-15T00:52:16;10.45;;;9.35;;
50591;SDS011;36548;50.506;30.834;2022-11-15T00:53:44;10.05;;;9.08;;
50591;SDS011;36548;50.506;30.834;2022-11-15T00:55:00;10.25;;;9.15;;
50591;SDS011;36548;50.506;30.834;2022-11-15T00:56:27;10.55;;;8.07;;
50591;SDS011;36548;50.506;30.834;2022-11-15T00:57:55;9.57;;;8.23;;
50591;SDS011;36548;50.506;30.834;2022-11-15T00:59:11;9.53;;;8.58;;
50591;SDS011;36548;50.506;30.834;2022-11-15T01:00:38;9.98;;;8.28;;
50591;SDS011;36548;50.506;30.834;2022-11-15T01:02:06;8.82;;;7.93;;
50591;SDS011;36548;50.506;30.834;2022-11-15T01:03:21;9.10;;;7.55;;
50591;SDS011;36548;50.506;30.834;2022-11-15T01:04:49;8.02;;;7.18;;
50591;SDS011;36548;50.506;30.834;2022-11-15T01:06:18;9.75;;;8.05;;
50591;SDS011;36548;50.506;30.834;2022-11-15T01:07:51;8.60;;;7.68;;
50591;SDS011;36548;50.506;30.834;2022-11-15T01:09:08;9.63;;;8.68;;
50591;SDS011;36548;50.506;30.834;2022-11-15T01:10:36;9.18;;;8.23;;
50591;SDS011;36548;50.506;30.834;2022-11-15T01:11:52;10.86;;;8.84;;
50591;SDS011;36548;50.506;30.834;2022-11-15T01:13:20;8.40;;;7.62;;
50591;SDS011;36548;50.506;30.834;2022-11-15T01:14:49;9.08;;;8.18;;
50591;SDS011;36548;50.506;30.834;2022-11-15T01:16:18;9.50;;;8.35;;
50591;SDS011;36548;50.506;30.834;2022-11-15T01:17:46;9.92;;;8.78;;
50591;SDS011;36548;50.506;30.834;2022-11-15T01:19:13;8.80;;;7.25;;
50591;SDS011;36548;50.506;30.834;2022-11-15T01:20:29;8.77;;;7.95;;
50591;SDS011;36548;50.506;30.834;2022-11-15T01:21:57;9.98;;;7.77;;
50591;SDS011;36548;50.506;30.834;2022-11-15T01:23:11;9.23;;;7.75;;
50591;SDS011;36548;50.506;30.834;2022-11-15T01:24:38;8.28;;;7.48;;
50591;SDS011;36548;50.506;30.834;2022-11-15T01:26:09;8.77;;;7.88;;
50591;SDS011;36548;50.506;30.834;2022-11-15T01:27:26;9.04;;;7.96;;
50591;SDS011;36548;50.506;30.834;2022-11-15T01:28:53;8.45;;;7.68;;
50591;SDS011;36548;50.506;30.834;2022-11-15T01:30:20;8.15;;;7.40;;
50591;SDS011;36548;50.506;30.834;2022-11-15T01:31:49;9.77;;;7.68;;
50591;SDS011;36548;50.506;30.834;2022-11-15T01:33:17;8.38;;;6.85;;
50591;SDS011;36548;50.506;30.834;2022-11-15T01:34:46;9.00;;;8.20;;
50591;SDS011;36548;50.506;30.834;2022-11-15T01:36:15;8.83;;;7.93;;
50591;SDS011;36548;50.506;30.834;2022-11-15T01:37:32;8.33;;;7.50;;
50591;SDS011;36548;50.506;30.834;2022-11-15T01:39:00;7.98;;;7.22;;
50591;SDS011;36548;50.506;30.834;2022-11-15T01:40:15;8.73;;;7.77;;
50591;SDS011;36548;50.506;30.834;2022-11-15T01:41:43;8.48;;;7.60;;
50591;SDS011;36548;50.506;30.834;2022-11-15T01:44:44;8.25;;;7.38;;
50591;SDS011;36548;50.506;30.834;2022-11-15T01:47:49;7.58;;;6.93;;
50591;SDS011;36548;50.506;30.834;2022-11-15T01:49:21;7.58;;;6.84;;
50591;SDS011;36548;50.506;30.834;2022-11-15T01:50:51;9.32;;;7.17;;
50591;SDS011;36548;50.506;30.834;2022-11-15T01:52:20;8.83;;;7.75;;
50591;SDS011;36548;50.506;30.834;2022-11-15T01:55:22;9.30;;;7.10;;
50591;SDS011;36548;50.506;30.834;2022-11-15T01:56:43;8.35;;;7.50;;
50591;SDS011;36548;50.506;30.834;2022-11-15T01:58:15;9.00;;;7.22;;
50591;SDS011;36548;50.506;30.834;2022-11-15T01:59:43;7.90;;;7.18;;
50591;SDS011;36548;50.506;30.834;2022-11-15T02:01:12;7.67;;;6.90;;
50591;SDS011;36548;50.506;30.834;2022-11-15T02:02:29;7.60;;;6.77;;
50591;SDS011;36548;50.506;30.834;2022-11-15T02:03:59;8.16;;;7.36;;
50591;SDS011;36548;50.506;30.834;2022-11-15T02:05:20;9.17;;;7.72;;
50591;SDS011;36548;50.506;30.834;2022-11-15T02:06:49;8.30;;;7.50;;
50591;SDS011;36548;50.506;30.834;2022-11-15T02:08:17;8.62;;;7.23;;
50591;SDS011;36548;50.506;30.834;2022-11-15T02:09:47;7.70;;;7.00;;
50591;SDS011;36548;50.506;30.834;2022-11-15T02:11:16;8.10;;;7.30;;
50591;SDS011;36548;50.506;30.834;2022-11-15T02:12:45;8.90;;;7.73;;
50591;SDS011;36548;50.506;30.834;2022-11-15T02:14:01;8.28;;;7.50;;
50591;SDS011;36548;50.506;30.834;2022-11-15T02:15:34;8.20;;;7.43;;
50591;SDS011;36548;50.506;30.834;2022-11-15T02:18:52;7.90;;;7.13;;
50591;SDS011;36548;50.506;30.834;2022-11-15T02:24:06;7.50;;;6.60;;
50591;SDS011;36548;50.506;30.834;2022-11-15T02:29:10;8.88;;;7.13;;
50591;SDS011;36548;50.506;30.834;2022-11-15T02:36:01;7.97;;;7.20;;
50591;SDS011;36548;50.506;30.834;2022-11-15T02:37:34;7.30;;;6.60;;
50591;SDS011;36548;50.506;30.834;2022-11-15T02:38:56;7.58;;;6.88;;
50591;SDS011;36548;50.506;30.834;2022-11-15T02:42:01;7.88;;;7.08;;
50591;SDS011;36548;50.506;30.834;2022-11-15T02:43:24;9.00;;;7.17;;
50591;SDS011;36548;50.506;30.834;2022-11-15T02:45:17;7.67;;;6.97;;
50591;SDS011;36548;50.506;30.834;2022-11-15T02:48:27;7.88;;;7.18;;
50591;SDS011;36548;50.506;30.834;2022-11-15T02:49:51;8.88;;;7.77;;
50591;SDS011;36548;50.506;30.834;2022-11-15T02:51:10;8.42;;;7.58;;
50591;SDS011;36548;50.506;30.834;2022-11-15T02:52:40;8.50;;;7.57;;
50591;SDS011;36548;50.506;30.834;2022-11-15T02:54:13;9.17;;;8.10;;
50591;SDS011;36548;50.506;30.834;2022-11-15T02:55:32;9.65;;;8.62;;
50591;SDS011;36548;50.506;30.834;2022-11-15T03:00:04;9.02;;;8.15;;
50591;SDS011;36548;50.506;30.834;2022-11-15T03:01:37;7.02;;;6.32;;
50591;SDS011;36548;50.506;30.834;2022-11-15T03:05:53;8.93;;;8.12;;
50591;SDS011;36548;50.506;30.834;2022-11-15T03:11:41;10.05;;;8.00;;
50591;SDS011;36548;50.506;30.834;2022-11-15T03:13:26;8.77;;;7.93;;
50591;SDS011;36548;50.506;30.834;2022-11-15T03:18:08;8.67;;;7.65;;
50591;SDS011;36548;50.506;30.834;2022-11-15T03:20:46;11.37;;;9.10;;
50591;SDS011;36548;50.506;30.834;2022-11-15T03:22:18;9.00;;;8.15;;
50591;SDS011;36548;50.506;30.834;2022-11-15T03:23:36;9.13;;;8.05;;
50591;SDS011;36548;50.506;30.834;2022-11-15T03:25:06;9.68;;;8.54;;
50591;SDS011;36548;50.506;30.834;2022-11-15T03:26:25;9.77;;;8.78;;
50591;SDS011;36548;50.506;30.834;2022-11-15T03:27:55;8.78;;;7.62;;
50591;SDS011;36548;50.506;30.834;2022-11-15T03:29:27;11.95;;;9.60;;
50591;SDS011;36548;50.506;30.834;2022-11-15T03:30:46;9.47;;;8.28;;
50591;SDS011;36548;50.506;30.834;2022-11-15T03:32:17;9.75;;;8.65;;
50591;SDS011;36548;50.506;30.834;2022-11-15T03:33:36;9.43;;;8.48;;
50591;SDS011;36548;50.506;30.834;2022-11-15T03:35:07;9.92;;;8.32;;
50591;SDS011;36548;50.506;30.834;2022-11-15T03:36:26;9.83;;;8.80;;
50591;SDS011;36548;50.506;30.834;2022-11-15T03:39:37;12.07;;;8.37;;
50591;SDS011;36548;50.506;30.834;2022-11-15T03:41:11;10.20;;;8.98;;
50591;SDS011;36548;50.506;30.834;2022-11-15T03:45:35;10.05;;;8.30;;
50591;SDS011;36548;50.506;30.834;2022-11-15T03:47:11;8.97;;;7.95;;
50591;SDS011;36548;50.506;30.834;2022-11-15T03:48:39;9.65;;;7.88;;
50591;SDS011;36548;50.506;30.834;2022-11-15T03:50:09;11.90;;;8.80;;
50591;SDS011;36548;50.506;30.834;2022-11-15T03:51:43;9.60;;;7.90;;
50591;SDS011;36548;50.506;30.834;2022-11-15T03:53:11;9.58;;;8.55;;
50591;SDS011;36548;50.506;30.834;2022-11-15T03:54:27;8.93;;;7.97;;
50591;SDS011;36548;50.506;30.834;2022-11-15T03:55:54;9.70;;;8.27;;
50591;SDS011;36548;50.506;30.834;2022-11-15T03:57:22;8.82;;;7.72;;
50591;SDS011;36548;50.506;30.834;2022-11-15T03:58:37;9.20;;;8.32;;
50591;SDS011;36548;50.506;30.834;2022-11-15T04:00:05;9.75;;;8.17;;
50591;SDS011;36548;50.506;30.834;2022-11-15T04:01:22;9.77;;;8.77;;
50591;SDS011;36548;50.506;30.834;2022-11-15T04:02:51;10.77;;;8.42;;
50591;SDS011;36548;50.506;30.834;2022-11-15T04:04:08;11.52;;;8.80;;
50591;SDS011;36548;50.506;30.834;2022-11-15T04:05:35;9.00;;;8.10;;
50591;SDS011;36548;50.506;30.834;2022-11-15T04:08:41;8.88;;;7.98;;
50591;SDS011;36548;50.506;30.834;2022-11-15T04:10:10;10.65;;;8.27;;
50591;SDS011;36548;50.506;30.834;2022-11-15T04:11:38;8.50;;;7.63;;
50591;SDS011;36548;50.506;30.834;2022-11-15T04:12:53;9.70;;;8.75;;
50591;SDS011;36548;50.506;30.834;2022-11-15T04:14:21;9.27;;;8.38;;
50591;SDS011;36548;50.506;30.834;2022-11-15T04:15:55;10.22;;;8.30;;
50591;SDS011;36548;50.506;30.834;2022-11-15T04:17:22;10.50;;;9.40;;
50591;SDS011;36548;50.506;30.834;2022-11-15T04:18:38;9.75;;;8.80;;
50591;SDS011;36548;50.506;30.834;2022-11-15T04:20:06;12.80;;;9.15;;
50591;SDS011;36548;50.506;30.834;2022-11-15T04:21:42;9.30;;;8.30;;
50591;SDS011;36548;50.506;30.834;2022-11-15T04:23:30;9.35;;;8.45;;
50591;SDS011;36548;50.506;30.834;2022-11-15T04:25:04;11.00;;;8.95;;
50591;SDS011;36548;50.506;30.834;2022-11-15T04:26:32;9.55;;;8.13;;
50591;SDS011;36548;50.506;30.834;2022-11-15T04:27:49;9.13;;;8.25;;
50591;SDS011;36548;50.506;30.834;2022-11-15T04:29:16;14.30;;;8.80;;
50591;SDS011;36548;50.506;30.834;2022-11-15T04:31:06;10.00;;;8.38;;
50591;SDS011;36548;50.506;30.834;2022-11-15T04:32:22;9.00;;;8.17;;
50591;SDS011;36548;50.506;30.834;2022-11-15T04:33:49;11.15;;;9.13;;
50591;SDS011;36548;50.506;30.834;2022-11-15T04:35:05;10.73;;;9.55;;
50591;SDS011;36548;50.506;30.834;2022-11-15T04:36:34;10.42;;;8.56;;
50591;SDS011;36548;50.506;30.834;2022-11-15T04:38:08;9.98;;;8.72;;
50591;SDS011;36548;50.506;30.834;2022-11-15T04:39:42;10.75;;;8.72;;
50591;SDS011;36548;50.506;30.834;2022-11-15T04:40:58;11.03;;;9.10;;
50591;SDS011;36548;50.506;30.834;2022-11-15T04:42:25;10.28;;;9.12;;
50591;SDS011;36548;50.506;30.834;2022-11-15T04:43:54;10.45;;;8.65;;
50591;SDS011;36548;50.506;30.834;2022-11-15T04:45:22;10.70;;;9.47;;
50591;SDS011;36548;50.506;30.834;2022-11-15T04:46:51;11.95;;;9.30;;
50591;SDS011;36548;50.506;30.834;2022-11-15T04:48:36;12.27;;;9.02;;
50591;SDS011;36548;50.506;30.834;2022-11-15T04:50:05;11.65;;;9.00;;
50591;SDS011;36548;50.506;30.834;2022-11-15T04:51:20;10.72;;;9.02;;
50591;SDS011;36548;50.506;30.834;2022-11-15T04:52:52;10.20;;;8.07;;
50591;SDS011;36548;50.506;30.834;2022-11-15T04:54:08;12.58;;;9.07;;
50591;SDS011;36548;50.506;30.834;2022-11-15T04:55:36;10.28;;;8.64;;
50591;SDS011;36548;50.506;30.834;2022-11-15T04:57:05;9.75;;;8.70;;
50591;SDS011;36548;50.506;30.834;2022-11-15T04:58:32;10.02;;;7.75;;
50591;SDS011;36548;50.506;30.834;2022-11-15T04:59:48;9.75;;;8.78;;
50591;SDS011;36548;50.506;30.834;2022-11-15T05:01:15;9.47;;;7.67;;
50591;SDS011;36548;50.506;30.834;2022-11-15T05:02:31;10.13;;;8.40;;
50591;SDS011;36548;50.506;30.834;2022-11-15T05:04:01;8.40;;;7.60;;
50591;SDS011;36548;50.506;30.834;2022-11-15T05:05:36;8.43;;;7.72;;
50591;SDS011;36548;50.506;30.834;2022-11-15T05:07:05;13.33;;;8.53;;
50591;SDS011;36548;50.506;30.834;2022-11-15T05:08:21;9.10;;;7.80;;
50591;SDS011;36548;50.506;30.834;2022-11-15T05:09:48;10.82;;;8.72;;
50591;SDS011;36548;50.506;30.834;2022-11-15T05:11:03;11.63;;;8.67;;
50591;SDS011;36548;50.506;30.834;2022-11-15T05:12:31;11.42;;;9.70;;
50591;SDS011;36548;50.506;30.834;2022-11-15T05:13:47;11.23;;;9.45;;
50591;SDS011;36548;50.506;30.834;2022-11-15T05:15:16;11.25;;;9.60;;
50591;SDS011;36548;50.506;30.834;2022-11-15T05:16:43;11.70;;;10.50;;
50591;SDS011;36548;50.506;30.834;2022-11-15T05:17:58;12.45;;;11.15;;
50591;SDS011;36548;50.506;30.834;2022-11-15T05:19:30;14.02;;;11.18;;
50591;SDS011;36548;50.506;30.834;2022-11-15T05:21:04;12.42;;;11.10;;
50591;SDS011;36548;50.506;30.834;2022-11-15T05:22:21;12.67;;;11.32;;
50591;SDS011;36548;50.506;30.834;2022-11-15T05:23:50;15.80;;;13.43;;
50591;SDS011;36548;50.506;30.834;2022-11-15T05:25:07;16.58;;;13.82;;
50591;SDS011;36548;50.506;30.834;2022-11-15T05:26:35;16.67;;;13.62;;
50591;SDS011;36548;50.506;30.834;2022-11-15T05:28:04;14.33;;;12.80;;
50591;SDS011;36548;50.506;30.834;2022-11-15T05:29:32;14.45;;;12.55;;
50591;SDS011;36548;50.506;30.834;2022-11-15T05:30:47;14.75;;;12.77;;
50591;SDS011;36548;50.506;30.834;2022-11-15T05:32:15;15.10;;;12.45;;
50591;SDS011;36548;50.506;30.834;2022-11-15T05:33:33;14.75;;;12.75;;
50591;SDS011;36548;50.506;30.834;2022-11-15T05:35:02;15.10;;;12.92;;
50591;SDS011;36548;50.506;30.834;2022-11-15T05:36:28;15.37;;;12.62;;
50591;SDS011;36548;50.506;30.834;2022-11-15T05:38:00;15.08;;;13.15;;
50591;SDS011;36548;50.506;30.834;2022-11-15T05:39:16;14.80;;;13.10;;
50591;SDS011;36548;50.506;30.834;2022-11-15T05:40:45;15.10;;;12.90;;
50591;SDS011;36548;50.506;30.834;2022-11-15T05:42:02;15.63;;;12.97;;
50591;SDS011;36548;50.506;30.834;2022-11-15T05:43:35;14.63;;;12.72;;
50591;SDS011;36548;50.506;30.834;2022-11-15T05:46:35;15.58;;;13.12;;
50591;SDS011;36548;50.506;30.834;2022-11-15T05:49:31;16.45;;;13.25;;
50591;SDS011;36548;50.506;30.834;2022-11-15T05:50:49;32.90;;;29.60;;
50591;SDS011;36548;50.506;30.834;2022-11-15T05:52:18;21.23;;;18.23;;
50591;SDS011;36548;50.506;30.834;2022-11-15T05:53:49;18.67;;;16.25;;
50591;SDS011;36548;50.506;30.834;2022-11-15T05:55:07;16.50;;;14.70;;
50591;SDS011;36548;50.506;30.834;2022-11-15T05:56:37;22.26;;;18.58;;
50591;SDS011;36548;50.506;30.834;2022-11-15T05:57:53;15.65;;;13.95;;
50591;SDS011;36548;50.506;30.834;2022-11-15T05:59:21;16.75;;;13.82;;
50591;SDS011;36548;50.506;30.834;2022-11-15T06:00:38;14.90;;;12.95;;
50591;SDS011;36548;50.506;30.834;2022-11-15T06:02:07;16.47;;;14.38;;
50591;SDS011;36548;50.506;30.834;2022-11-15T06:03:36;16.45;;;13.05;;
50591;SDS011;36548;50.506;30.834;2022-11-15T06:04:53;20.00;;;14.52;;
50591;SDS011;36548;50.506;30.834;2022-11-15T06:06:21;18.63;;;13.68;;
50591;SDS011;36548;50.506;30.834;2022-11-15T06:07:36;16.37;;;13.88;;
50591;SDS011;36548;50.506;30.834;2022-11-15T06:09:03;15.50;;;12.34;;
50591;SDS011;36548;50.506;30.834;2022-11-15T06:10:18;16.83;;;13.65;;
50591;SDS011;36548;50.506;30.834;2022-11-15T06:11:45;20.62;;;15.55;;
50591;SDS011;36548;50.506;30.834;2022-11-15T06:13:01;18.07;;;13.92;;
50591;SDS011;36548;50.506;30.834;2022-11-15T06:14:31;22.03;;;14.10;;
50591;SDS011;36548;50.506;30.834;2022-11-15T06:15:46;18.73;;;14.65;;
50591;SDS011;36548;50.506;30.834;2022-11-15T06:17:12;22.12;;;13.42;;
50591;SDS011;36548;50.506;30.834;2022-11-15T06:18:27;21.53;;;14.95;;
50591;SDS011;36548;50.506;30.834;2022-11-15T06:19:55;17.50;;;13.75;;
50591;SDS011;36548;50.506;30.834;2022-11-15T06:21:10;19.35;;;15.27;;
50591;SDS011;36548;50.506;30.834;2022-11-15T06:22:38;20.03;;;15.18;;
50591;SDS011;36548;50.506;30.834;2022-11-15T06:24:06;16.37;;;13.75;;
50591;SDS011;36548;50.506;30.834;2022-11-15T06:25:22;16.35;;;14.05;;
50591;SDS011;36548;50.506;30.834;2022-11-15T06:26:51;20.00;;;15.45;;
50591;SDS011;36548;50.506;30.834;2022-11-15T06:28:06;17.67;;;13.58;;
50591;SDS011;36548;50.506;30.834;2022-11-15T06:29:34;18.23;;;14.32;;
50591;SDS011;36548;50.506;30.834;2022-11-15T06:30:49;18.78;;;16.50;;
50591;SDS011;36548;50.506;30.834;2022-11-15T06:32:18;25.90;;;19.05;;
50591;SDS011;36548;50.506;30.834;2022-11-15T06:33:46;20.15;;;16.05;;
50591;SDS011;36548;50.506;30.834;2022-11-15T06:35:03;18.88;;;14.42;;
50591;SDS011;36548;50.506;30.834;2022-11-15T06:36:33;18.45;;;14.55;;
50591;SDS011;36548;50.506;30.834;2022-11-15T06:37:51;22.67;;;16.95;;
50591;SDS011;36548;50.506;30.834;2022-11-15T06:39:19;18.47;;;15.72;;
50591;SDS011;36548;50.506;30.834;2022-11-15T06:40:36;19.63;;;15.78;;
50591;SDS011;36548;50.506;30.834;2022-11-15T06:42:05;18.82;;;15.97;;
50591;SDS011;36548;50.506;30.834;2022-11-15T06:43:21;18.83;;;15.13;;
50591;SDS011;36548;50.506;30.834;2022-11-15T06:46:24;18.73;;;15.77;;
50591;SDS011;36548;50.506;30.834;2022-11-15T06:47:45;18.85;;;14.98;;
50591;SDS011;36548;50.506;30.834;2022-11-15T06:49:13;18.68;;;15.64;;
50591;SDS011;36548;50.506;30.834;2022-11-15T06:50:29;19.88;;;15.35;;
50591;SDS011;36548;50.506;30.834;2022-11-15T06:51:56;18.10;;;14.67;;
50591;SDS011;36548;50.506;30.834;2022-11-15T06:53:23;18.72;;;15.10;;
50591;SDS011;36548;50.506;30.834;2022-11-15T06:54:38;19.87;;;15.40;;
50591;SDS011;36548;50.506;30.834;2022-11-15T06:56:06;19.37;;;16.05;;
50591;SDS011;36548;50.506;30.834;2022-11-15T06:57:23;18.93;;;15.73;;
50591;SDS011;36548;50.506;30.834;2022-11-15T06:58:50;18.95;;;15.35;;
50591;SDS011;36548;50.506;30.834;2022-11-15T07:00:06;18.58;;;15.13;;
50591;SDS011;36548;50.506;30.834;2022-11-15T07:01:34;18.75;;;14.98;;
50591;SDS011;36548;50.506;30.834;2022-11-15T07:03:03;20.35;;;15.90;;
50591;SDS011;36548;50.506;30.834;2022-11-15T07:04:18;21.38;;;15.47;;
50591;SDS011;36548;50.506;30.834;2022-11-15T07:05:52;19.57;;;15.50;;
50591;SDS011;36548;50.506;30.834;2022-11-15T07:07:10;18.60;;;15.47;;
50591;SDS011;36548;50.506;30.834;2022-11-15T07:08:37;22.05;;;16.32;;
50591;SDS011;36548;50.506;30.834;2022-11-15T07:10:05;21.30;;;16.67;;
50591;SDS011;36548;50.506;30.834;2022-11-15T07:11:35;19.80;;;14.90;;
50591;SDS011;36548;50.506;30.834;2022-11-15T07:13:02;21.22;;;15.87;;
50591;SDS011;36548;50.506;30.834;2022-11-15T07:14:18;18.77;;;15.12;;
50591;SDS011;36548;50.506;30.834;2022-11-15T07:15:47;23.60;;;16.45;;
50591;SDS011;36548;50.506;30.834;2022-11-15T07:17:05;18.57;;;14.93;;
50591;SDS011;36548;50.506;30.834;2022-11-15T07:20:02;19.65;;;15.20;;
50591;SDS011;36548;50.506;30.834;2022-11-15T07:21:30;19.27;;;14.95;;
50591;SDS011;36548;50.506;30.834;2022-11-15T07:23:00;19.38;;;14.87;;
50591;SDS011;36548;50.506;30.834;2022-11-15T07:24:24;17.92;;;14.22;;
50591;SDS011;36548;50.506;30.834;2022-11-15T07:25:53;20.43;;;13.73;;
50591;SDS011;36548;50.506;30.834;2022-11-15T07:27:08;20.13;;;14.93;;
50591;SDS011;36548;50.506;30.834;2022-11-15T07:28:35;18.70;;;14.05;;
50591;SDS011;36548;50.506;30.834;2022-11-15T07:30:08;18.43;;;14.48;;
50591;SDS011;36548;50.506;30.834;2022-11-15T07:31:35;17.80;;;14.82;;
50591;SDS011;36548;50.506;30.834;2022-11-15T07:32:54;15.93;;;13.60;;
50591;SDS011;36548;50.506;30.834;2022-11-15T07:34:27;16.50;;;14.15;;
50591;SDS011;36548;50.506;30.834;2022-11-15T07:35:42;17.87;;;13.80;;
50591;SDS011;36548;50.506;30.834;2022-11-15T07:37:09;18.70;;;14.15;;
50591;SDS011;36548;50.506;30.834;2022-11-15T07:38:37;14.75;;;11.95;;
50591;SDS011;36548;50.506;30.834;2022-11-15T07:39:52;16.98;;;13.12;;
50591;SDS011;36548;50.506;30.834;2022-11-15T07:41:20;15.68;;;12.90;;
50591;SDS011;36548;50.506;30.834;2022-11-15T07:42:48;16.26;;;10.90;;
50591;SDS011;36548;50.506;30.834;2022-11-15T07:44:11;16.38;;;11.87;;
50591;SDS011;36548;50.506;30.834;2022-11-15T07:45:45;13.17;;;10.72;;
50591;SDS011;36548;50.506;30.834;2022-11-15T07:47:00;13.77;;;10.50;;
50591;SDS011;36548;50.506;30.834;2022-11-15T07:48:27;13.18;;;10.73;;
50591;SDS011;36548;50.506;30.834;2022-11-15T07:49:57;14.60;;;11.65;;
50591;SDS011;36548;50.506;30.834;2022-11-15T07:51:25;13.98;;;11.17;;
50591;SDS011;36548;50.506;30.834;2022-11-15T07:52:55;14.75;;;10.77;;
50591;SDS011;36548;50.506;30.834;2022-11-15T07:54:24;13.52;;;10.54;;
50591;SDS011;36548;50.506;30.834;2022-11-15T07:55:39;13.43;;;10.70;;
50591;SDS011;36548;50.506;30.834;2022-11-15T07:57:08;15.18;;;11.73;;
50591;SDS011;36548;50.506;30.834;2022-11-15T07:58:37;15.15;;;10.97;;
50591;SDS011;36548;50.506;30.834;2022-11-15T08:00:05;14.63;;;11.00;;
50591;SDS011;36548;50.506;30.834;2022-11-15T08:01:22;12.53;;;10.88;;
50591;SDS011;36548;50.506;30.834;2022-11-15T08:02:49;12.02;;;10.37;;
50591;SDS011;36548;50.506;30.834;2022-11-15T08:04:04;13.73;;;11.30;;
50591;SDS011;36548;50.506;30.834;2022-11-15T08:05:34;12.97;;;10.98;;
50591;SDS011;36548;50.506;30.834;2022-11-15T08:06:51;23.60;;;19.83;;
50591;SDS011;36548;50.506;30.834;2022-11-15T08:08:19;59.40;;;46.12;;
50591;SDS011;36548;50.506;30.834;2022-11-15T08:09:34;26.80;;;22.05;;
50591;SDS011;36548;50.506;30.834;2022-11-15T08:11:01;19.50;;;14.73;;
50591;SDS011;36548;50.506;30.834;2022-11-15T08:12:30;16.93;;;13.23;;
50591;SDS011;36548;50.506;30.834;2022-11-15T08:13:57;16.07;;;13.17;;
50591;SDS011;36548;50.506;30.834;2022-11-15T08:15:13;14.60;;;11.75;;
50591;SDS011;36548;50.506;30.834;2022-11-15T08:16:41;13.55;;;11.00;;
50591;SDS011;36548;50.506;30.834;2022-11-15T08:17:56;14.50;;;11.40;;
50591;SDS011;36548;50.506;30.834;2022-11-15T08:19:25;12.65;;;10.28;;
50591;SDS011;36548;50.506;30.834;2022-11-15T08:20:41;12.97;;;9.70;;
50591;SDS011;36548;50.506;30.834;2022-11-15T08:22:09;14.03;;;10.42;;
50591;SDS011;36548;50.506;30.834;2022-11-15T08:23:26;14.83;;;10.57;;
50591;SDS011;36548;50.506;30.834;2022-11-15T08:24:54;11.98;;;9.85;;
50591;SDS011;36548;50.506;30.834;2022-11-15T08:26:22;13.55;;;11.53;;
50591;SDS011;36548;50.506;30.834;2022-11-15T08:27:51;13.68;;;11.06;;
50591;SDS011;36548;50.506;30.834;2022-11-15T08:29:07;10.77;;;9.13;;
50591;SDS011;36548;50.506;30.834;2022-11-15T08:30:38;11.52;;;9.60;;
50591;SDS011;36548;50.506;30.834;2022-11-15T08:32:08;12.25;;;9.70;;
50591;SDS011;36548;50.506;30.834;2022-11-15T08:33:36;12.17;;;9.82;;
50591;SDS011;36548;50.506;30.834;2022-11-15T08:35:04;12.05;;;9.95;;
50591;SDS011;36548;50.506;30.834;2022-11-15T08:36:20;11.23;;;10.03;;
50591;SDS011;36548;50.506;30.834;2022-11-15T08:37:49;11.62;;;9.60;;
50591;SDS011;36548;50.506;30.834;2022-11-15T08:39:04;11.15;;;9.55;;
50591;SDS011;36548;50.506;30.834;2022-11-15T08:40:32;12.98;;;9.85;;
50591;SDS011;36548;50.506;30.834;2022-11-15T08:41:48;15.18;;;10.00;;
50591;SDS011;36548;50.506;30.834;2022-11-15T08:43:15;13.32;;;10.38;;
50591;SDS011;36548;50.506;30.834;2022-11-15T08:44:50;12.57;;;9.85;;
50591;SDS011;36548;50.506;30.834;2022-11-15T08:46:19;13.18;;;10.55;;
50591;SDS011;36548;50.506;30.834;2022-11-15T08:47:34;14.53;;;11.57;;
50591;SDS011;36548;50.506;30.834;2022-11-15T08:49:01;15.27;;;12.67;;
50591;SDS011;36548;50.506;30.834;2022-11-15T08:50:17;14.87;;;12.80;;
50591;SDS011;36548;50.506;30.834;2022-11-15T08:51:44;17.08;;;11.68;;
50591;SDS011;36548;50.506;30.834;2022-11-15T08:53:20;17.78;;;12.43;;
50591;SDS011;36548;50.506;30.834;2022-11-15T08:54:47;16.48;;;13.08;;
50591;SDS011;36548;50.506;30.834;2022-11-15T08:56:02;17.88;;;13.10;;
50591;SDS011;36548;50.506;30.834;2022-11-15T08:57:32;17.80;;;13.15;;
50591;SDS011;36548;50.506;30.834;2022-11-15T08:58:59;18.48;;;13.62;;
50591;SDS011;36548;50.506;30.834;2022-11-15T09:00:28;16.80;;;12.95;;
50591;SDS011;36548;50.506;30.834;2022-11-15T09:02:03;16.78;;;13.08;;
50591;SDS011;36548;50.506;30.834;2022-11-15T09:03:31;18.05;;;13.35;;
50591;SDS011;36548;50.506;30.834;2022-11-15T09:04:59;15.97;;;12.33;;
50591;SDS011;36548;50.506;30.834;2022-11-15T09:06:15;16.87;;;12.60;;
50591;SDS011;36548;50.506;30.834;2022-11-15T09:07:42;17.08;;;13.33;;
50591;SDS011;36548;50.506;30.834;2022-11-15T09:09:10;17.98;;;14.22;;